Time;durP1;ratioP1;P1;durP2;ratioP2;P2;SDS_P1;SDS_P2;PMS_P1;PMS_P2;Temp;Humidity;BMP_temperature;BMP_pressure;BME280_temperature;BME280_humidity;BME280_pressure;Samples;Min_cycle;Max_cycle;Signal;HPM_P1;HPM_P2
2021/12/05 00:20:01;;;;;;;18.50;2.85;;;4.00;99.90;;;;;;4948136;28;20404;-90
2021/12/05 00:22:36;;;;;;;13.52;2.00;;;4.00;99.90;;;;;;5006801;28;20453;-90
2021/12/05 00:25:05;;;;;;;12.40;1.85;;;4.00;99.90;;;;;;5009216;28;20089;-91
2021/12/05 00:27:38;;;;;;;11.98;2.17;;;4.00;99.90;;;;;;5010926;28;20038;-90
2021/12/05 00:33:10;;;;;;;7.70;1.38;;;4.00;99.90;;;;;;5013073;28;19920;-90
2021/12/05 00:41:20;;;;;;;8.60;1.50;;;4.10;99.90;;;;;;5011905;28;20037;-90
2021/12/05 00:52:11;;;;;;;10.85;1.70;;;4.20;99.90;;;;;;5009874;28;20477;-90
2021/12/05 01:00:03;;;;;;;11.15;1.77;;;4.40;99.90;;;;;;5004881;28;20022;-89
2021/12/05 01:08:00;;;;;;;15.20;1.30;;;4.40;99.90;;;;;;5005230;28;20034;-89
2021/12/05 01:15:29;;;;;;;14.00;1.67;;;4.40;99.90;;;;;;5008069;28;20038;-90
2021/12/05 01:20:29;;;;;;;10.52;1.40;;;4.40;99.90;;;;;;5010083;28;20025;-88
2021/12/05 01:23:03;;;;;;;13.75;1.38;;;4.40;99.90;;;;;;5010655;28;20099;-87
2021/12/05 01:26:14;;;;;;;8.32;1.58;;;4.40;99.90;;;;;;5005653;28;20050;-87
2021/12/05 01:29:06;;;;;;;16.52;1.63;;;4.40;99.90;;;;;;5000566;28;21443;-89
2021/12/05 01:31:12;;;;;;;12.65;1.70;;;4.40;99.90;;;;;;5005324;28;20130;-89
2021/12/05 01:36:34;;;;;;;12.25;1.88;;;4.40;99.90;;;;;;5011479;28;20050;-88
2021/12/05 01:39:31;;;;;;;9.48;1.33;;;4.40;99.90;;;;;;5010812;28;20014;-88
2021/12/05 02:00:57;;;;;;;8.07;1.30;;;4.00;99.90;;;;;;5011405;28;20030;-88
2021/12/05 02:12:07;;;;;;;12.45;1.77;;;3.80;99.90;;;;;;4968421;28;20553;-89
2021/12/05 02:31:47;;;;;;;15.25;2.35;;;3.60;99.90;;;;;;5013793;28;20135;-89
2021/12/05 02:36:59;;;;;;;10.77;1.75;;;3.50;99.90;;;;;;5014325;28;20022;-89
2021/12/05 02:39:45;;;;;;;12.15;2.03;;;3.40;99.90;;;;;;5006793;28;20489;-89
2021/12/05 02:42:34;;;;;;;17.55;2.38;;;3.40;99.90;;;;;;5004640;28;20026;-88
2021/12/05 02:45:04;;;;;;;12.93;2.10;;;3.30;99.90;;;;;;5005869;28;20045;-88
2021/12/05 02:47:31;;;;;;;14.95;2.47;;;3.30;99.90;;;;;;5004903;28;20022;-88
2021/12/05 02:49:59;;;;;;;15.70;1.95;;;3.30;99.90;;;;;;5004240;28;20129;-88
2021/12/05 02:52:32;;;;;;;16.67;2.45;;;3.30;99.90;;;;;;5012022;28;20026;-89
2021/12/05 02:55:12;;;;;;;19.35;2.92;;;3.30;99.90;;;;;;5007958;28;20045;-88
2021/12/05 03:00:17;;;;;;;11.00;2.75;;;3.20;99.90;;;;;;5004503;28;20022;-88
2021/12/05 03:02:45;;;;;;;18.50;2.75;;;3.20;99.90;;;;;;5011822;28;20040;-89
2021/12/05 03:05:15;;;;;;;12.80;3.25;;;3.10;99.90;;;;;;5011546;28;20046;-88
2021/12/05 03:07:42;;;;;;;12.95;2.03;;;3.20;99.90;;;;;;5014752;28;20080;-88
2021/12/05 03:10:11;;;;;;;10.98;1.88;;;3.10;99.90;;;;;;5011274;28;20025;-88
2021/12/05 03:12:39;;;;;;;12.40;1.73;;;3.20;99.90;;;;;;5010799;28;20091;-89
2021/12/05 03:15:09;;;;;;;11.63;1.98;;;3.20;99.90;;;;;;5008917;28;20033;-88
2021/12/05 03:17:36;;;;;;;14.30;1.83;;;3.20;99.90;;;;;;5003302;28;20466;-89
2021/12/05 03:20:03;;;;;;;14.02;2.78;;;3.20;99.90;;;;;;5006029;28;20034;-89
2021/12/05 03:22:29;;;;;;;15.35;3.08;;;3.30;99.90;;;;;;5011040;28;20060;-89
2021/12/05 03:24:54;;;;;;;12.52;2.78;;;3.30;99.90;;;;;;5008100;28;20038;-88
2021/12/05 03:27:20;;;;;;;14.02;2.15;;;3.20;99.90;;;;;;5007451;28;20433;-88
2021/12/05 03:29:46;;;;;;;12.32;1.77;;;3.20;99.90;;;;;;5008071;28;20080;-88
2021/12/05 03:32:11;;;;;;;12.30;2.45;;;3.20;99.90;;;;;;5008902;28;20040;-88
2021/12/05 03:34:37;;;;;;;14.90;2.42;;;3.20;99.90;;;;;;5009335;28;20022;-88
2021/12/05 03:37:04;;;;;;;12.60;2.38;;;3.10;99.90;;;;;;5009652;28;20116;-88
2021/12/05 03:39:29;;;;;;;17.27;2.67;;;3.20;99.90;;;;;;5006960;28;20018;-88
2021/12/05 03:41:57;;;;;;;12.68;2.58;;;3.20;99.90;;;;;;5010340;28;20056;-88
2021/12/05 03:44:25;;;;;;;11.68;2.05;;;3.30;99.90;;;;;;5007246;28;20489;-88
2021/12/05 03:46:53;;;;;;;14.85;2.88;;;3.30;99.90;;;;;;5006022;28;20066;-88
2021/12/05 03:49:18;;;;;;;16.92;2.08;;;3.30;99.90;;;;;;5027137;28;20440;-88
2021/12/05 03:51:57;;;;;;;14.60;2.42;;;3.40;99.90;;;;;;5008387;28;20026;-88
2021/12/05 03:54:24;;;;;;;13.95;2.05;;;3.40;99.90;;;;;;5024558;28;20076;-87
2021/12/05 03:56:50;;;;;;;11.93;2.60;;;3.40;99.90;;;;;;5010361;28;20092;-88
2021/12/05 03:59:17;;;;;;;10.60;1.98;;;3.40;99.90;;;;;;5007811;28;20497;-88
2021/12/05 04:01:43;;;;;;;12.45;1.95;;;3.40;99.90;;;;;;5010028;28;20040;-87
2021/12/05 04:04:10;;;;;;;5.47;1.70;;;3.50;99.90;;;;;;5009829;28;20033;-87
2021/12/05 04:06:38;;;;;;;10.13;2.25;;;3.50;99.90;;;;;;5006932;28;20120;-88
2021/12/05 04:09:08;;;;;;;11.95;2.58;;;3.50;99.90;;;;;;5007974;28;20030;-88
2021/12/05 04:11:40;;;;;;;12.57;2.05;;;3.50;99.90;;;;;;5009953;28;20026;-88
2021/12/05 04:14:09;;;;;;;10.27;2.22;;;3.60;99.90;;;;;;5021589;28;20029;-88
2021/12/05 04:16:36;;;;;;;9.00;2.25;;;3.60;99.90;;;;;;5006494;28;20520;-88
2021/12/05 04:19:02;;;;;;;13.85;2.58;;;3.70;99.90;;;;;;5012175;28;20056;-88
2021/12/05 04:21:29;;;;;;;12.52;2.28;;;3.70;99.90;;;;;;5010247;28;20025;-88
2021/12/05 04:23:57;;;;;;;9.75;2.45;;;3.70;99.90;;;;;;5010258;28;20034;-88
2021/12/05 04:26:23;;;;;;;14.23;2.58;;;3.70;99.90;;;;;;5007086;28;20029;-88
2021/12/05 04:28:49;;;;;;;12.35;2.85;;;3.70;99.90;;;;;;5007823;28;20049;-88
2021/12/05 04:31:15;;;;;;;11.02;2.75;;;3.80;99.90;;;;;;5022221;28;20034;-88
2021/12/05 04:33:41;;;;;;;9.38;2.92;;;3.80;99.90;;;;;;5025757;28;20018;-88
2021/12/05 04:36:07;;;;;;;11.68;2.60;;;3.80;99.90;;;;;;5008761;28;20026;-88
2021/12/05 04:38:33;;;;;;;7.80;2.42;;;3.80;99.90;;;;;;5006116;28;20139;-88
2021/12/05 04:41:01;;;;;;;15.23;2.97;;;3.90;99.90;;;;;;5005469;28;20070;-87
2021/12/05 04:43:27;;;;;;;12.55;3.03;;;3.90;99.90;;;;;;5004961;28;20069;-89
2021/12/05 04:45:53;;;;;;;12.05;3.08;;;3.90;99.90;;;;;;5007516;28;20026;-88
2021/12/05 04:48:18;;;;;;;10.10;2.70;;;3.90;99.90;;;;;;5011022;28;20541;-88
2021/12/05 04:50:45;;;;;;;9.98;2.60;;;3.90;99.90;;;;;;5021433;28;20029;-88
2021/12/05 04:53:11;;;;;;;12.13;3.60;;;4.00;99.90;;;;;;5004315;28;20030;-88
2021/12/05 04:55:37;;;;;;;8.68;3.70;;;3.90;99.90;;;;;;5009886;28;20022;-89
2021/12/05 04:58:05;;;;;;;11.07;3.20;;;4.00;99.90;;;;;;5014052;28;20040;-89
2021/12/05 05:00:40;;;;;;;10.35;4.13;;;4.00;99.90;;;;;;5006329;28;20404;-89
2021/12/05 05:03:07;;;;;;;9.40;3.70;;;4.00;99.90;;;;;;5008480;28;20785;-88
2021/12/05 05:05:33;;;;;;;10.25;4.03;;;4.10;99.90;;;;;;5020306;28;20030;-88
2021/12/05 05:07:59;;;;;;;14.48;3.90;;;4.10;99.90;;;;;;5012230;28;20030;-88
2021/12/05 05:10:31;;;;;;;9.30;3.40;;;4.10;99.90;;;;;;5023480;28;20477;-88
2021/12/05 05:12:56;;;;;;;9.68;3.90;;;4.20;99.90;;;;;;5012265;28;20113;-88
2021/12/05 05:15:26;;;;;;;6.75;3.50;;;4.10;99.90;;;;;;5024416;28;20165;-88
2021/12/05 05:17:53;;;;;;;14.40;3.92;;;4.20;99.90;;;;;;5009617;28;20136;-88
2021/12/05 05:44:39;;;;;;;14.65;4.07;;;4.40;99.90;;;;;;5010860;28;20049;-88
2021/12/05 05:47:26;;;;;;;10.20;3.47;;;4.40;99.90;;;;;;5005612;28;20034;-88
2021/12/05 05:50:01;;;;;;;12.15;3.13;;;4.40;99.90;;;;;;5007701;28;20042;-88
2021/12/05 05:52:29;;;;;;;12.05;3.22;;;4.40;99.90;;;;;;5009271;28;20018;-88
2021/12/05 05:54:57;;;;;;;8.77;3.25;;;4.40;99.90;;;;;;5006564;28;20025;-87
2021/12/05 05:57:27;;;;;;;11.07;4.38;;;4.50;99.90;;;;;;5013432;28;20033;-88
2021/12/05 06:05:04;;;;;;;9.40;3.78;;;4.50;99.90;;;;;;5010201;28;20096;-88
2021/12/05 06:07:30;;;;;;;10.70;3.45;;;4.50;99.90;;;;;;4994755;28;20026;-88
2021/12/05 06:09:55;;;;;;;10.25;3.50;;;4.60;99.90;;;;;;5001359;28;20025;-88
2021/12/05 06:12:21;;;;;;;13.93;4.00;;;4.60;99.90;;;;;;5004608;28;20030;-88
2021/12/05 06:14:46;;;;;;;9.02;3.95;;;4.60;99.90;;;;;;5019836;28;20026;-88
2021/12/05 06:17:12;;;;;;;9.60;3.63;;;4.60;99.90;;;;;;5017685;28;20034;-88
2021/12/05 06:19:37;;;;;;;6.93;3.33;;;4.60;99.90;;;;;;5010723;28;20033;-89
2021/12/05 06:22:03;;;;;;;10.13;4.05;;;4.60;99.90;;;;;;5012398;28;20037;-89
2021/12/05 06:24:29;;;;;;;6.22;3.15;;;4.60;99.90;;;;;;5011022;28;20092;-88
2021/12/05 06:26:55;;;;;;;9.02;3.40;;;4.60;99.90;;;;;;5014013;28;20033;-90
2021/12/05 06:29:22;;;;;;;16.73;4.80;;;4.60;99.90;;;;;;5007921;28;20081;-89
2021/12/05 06:39:42;;;;;;;7.38;3.38;;;4.60;99.90;;;;;;5013819;28;20107;-88
2021/12/05 06:47:40;;;;;;;8.30;3.47;;;4.50;99.90;;;;;;5014502;28;20081;-89
2021/12/05 06:50:06;;;;;;;16.27;4.00;;;4.50;99.90;;;;;;5010243;28;20018;-89
2021/12/05 06:52:32;;;;;;;7.13;3.22;;;4.50;99.90;;;;;;5006470;28;20057;-88
2021/12/05 06:54:57;;;;;;;6.53;3.65;;;4.50;99.90;;;;;;5029517;28;20034;-90
2021/12/05 06:57:23;;;;;;;6.20;2.85;;;4.60;99.90;;;;;;5012816;28;20433;-89
2021/12/05 06:59:49;;;;;;;5.75;3.05;;;4.60;99.90;;;;;;5028546;28;20041;-89
2021/12/05 07:02:17;;;;;;;6.22;3.15;;;4.60;99.90;;;;;;5024259;28;20022;-89
2021/12/05 07:07:32;;;;;;;5.93;2.63;;;4.60;99.90;;;;;;5012833;28;20053;-88
2021/12/05 07:09:58;;;;;;;3.45;2.10;;;4.60;99.90;;;;;;5027666;28;20022;-88
2021/12/05 07:20:02;;;;;;;2.03;1.10;;;4.50;99.90;;;;;;5014509;28;20026;-87
2021/12/05 07:22:50;;;;;;;2.20;1.20;;;4.50;99.90;;;;;;5010604;28;20628;-87
2021/12/05 07:25:27;;;;;;;4.55;1.25;;;4.50;99.90;;;;;;5012360;28;20088;-87
2021/12/05 07:41:53;;;;;;;2.45;1.33;;;4.40;99.90;;;;;;5008509;28;20079;-87
2021/12/05 07:44:19;;;;;;;2.63;1.70;;;4.40;99.90;;;;;;5014130;28;20041;-87
2021/12/05 07:46:46;;;;;;;4.30;1.63;;;4.30;99.90;;;;;;5011733;28;20394;-88
2021/12/05 07:49:13;;;;;;;3.33;2.33;;;4.30;99.90;;;;;;5029168;28;20058;-87
2021/12/05 07:51:43;;;;;;;2.45;1.88;;;4.30;99.90;;;;;;5012102;28;20026;-87
2021/12/05 07:54:16;;;;;;;2.17;1.63;;;4.30;99.90;;;;;;5023957;28;20049;-87
2021/12/05 07:56:48;;;;;;;3.50;1.70;;;4.30;99.90;;;;;;5006913;28;20106;-87
2021/12/05 08:15:33;;;;;;;5.13;3.97;;;4.30;99.90;;;;;;5010405;28;20053;-88
2021/12/05 08:17:58;;;;;;;5.03;3.83;;;4.30;99.90;;;;;;5030078;28;20119;-88
2021/12/05 08:20:37;;;;;;;8.18;3.88;;;4.20;99.90;;;;;;5007877;28;20089;-87
2021/12/05 08:23:04;;;;;;;4.85;3.72;;;4.20;99.90;;;;;;5008825;28;20041;-89
2021/12/05 08:25:32;;;;;;;6.95;3.15;;;4.20;99.90;;;;;;5021440;28;20080;-88
2021/12/05 08:28:17;;;;;;;5.82;3.40;;;4.30;99.90;;;;;;5005195;28;20111;-89
2021/12/05 08:30:47;;;;;;;3.28;2.92;;;4.20;99.90;;;;;;5013352;28;20296;-89
2021/12/05 08:33:30;;;;;;;5.50;2.92;;;4.20;99.90;;;;;;5015684;28;20030;-88
2021/12/05 08:36:10;;;;;;;4.93;2.83;;;4.20;99.90;;;;;;5008487;28;20053;-89
2021/12/05 08:41:44;;;;;;;6.03;3.42;;;4.30;99.90;;;;;;5007209;28;20440;-89
2021/12/05 08:44:41;;;;;;;5.95;4.00;;;4.30;99.90;;;;;;5011841;28;20042;-88
2021/12/05 09:22:52;;;;;;;6.43;4.38;;;4.60;99.90;;;;;;5017391;28;20034;-87
2021/12/05 09:25:37;;;;;;;5.60;4.22;;;4.60;99.90;;;;;;5014053;28;20520;-87
2021/12/05 09:38:39;;;;;;;7.20;4.82;;;4.70;99.90;;;;;;5013760;28;20072;-88
2021/12/05 10:09:00;;;;;;;5.85;4.70;;;4.90;99.90;;;;;;5012094;28;20114;-88
2021/12/05 10:11:42;;;;;;;9.60;5.55;;;4.90;99.90;;;;;;5006582;28;20489;-88
2021/12/05 10:14:28;;;;;;;7.25;4.90;;;4.90;99.90;;;;;;5008563;28;20604;-88
2021/12/05 10:17:28;;;;;;;6.43;4.88;;;4.90;99.90;;;;;;5009584;28;20261;-88
2021/12/05 10:37:20;;;;;;;8.15;4.93;;;5.00;99.90;;;;;;5015574;28;20030;-88
2021/12/05 10:39:47;;;;;;;9.45;5.57;;;5.00;99.90;;;;;;5003435;28;20120;-87
2021/12/05 10:42:40;;;;;;;10.23;6.03;;;5.10;99.90;;;;;;5022826;28;20027;-88
2021/12/05 10:45:11;;;;;;;;;;;5.00;99.90;;;;;;5032166;28;20088;-86
2021/12/05 10:47:45;;;;;;;8.43;5.50;;;5.00;99.90;;;;;;5030028;28;19909;-87
2021/12/05 10:50:33;;;;;;;8.00;6.25;;;5.00;99.90;;;;;;5007948;28;20122;-88
2021/12/05 10:53:23;;;;;;;9.23;5.78;;;4.90;99.90;;;;;;5007844;28;20054;-87
2021/12/05 10:56:03;;;;;;;10.10;6.40;;;4.90;99.90;;;;;;5025072;28;20386;-87
2021/12/05 10:58:36;;;;;;;8.18;6.30;;;4.90;99.90;;;;;;5018931;28;20096;-88
2021/12/05 11:01:31;;;;;;;8.52;6.40;;;4.90;99.90;;;;;;5013477;28;20022;-88
2021/12/05 11:04:10;;;;;;;10.13;6.55;;;4.90;99.90;;;;;;5004270;28;20041;-89
2021/12/05 11:06:53;;;;;;;7.78;6.07;;;4.90;99.90;;;;;;5007896;28;20462;-88
2021/12/05 11:09:32;;;;;;;12.07;7.03;;;4.90;99.90;;;;;;5027462;28;20036;-86
2021/12/05 11:12:08;;;;;;;9.07;6.80;;;4.90;99.90;;;;;;5027231;28;20088;-87
2021/12/05 11:14:50;;;;;;;10.02;7.47;;;4.90;99.90;;;;;;5011239;28;20041;-88
2021/12/05 11:17:18;;;;;;;9.23;6.50;;;4.90;99.90;;;;;;5013075;28;20076;-87
2021/12/05 11:19:47;;;;;;;11.60;7.55;;;5.00;99.90;;;;;;5019585;28;20033;-87
2021/12/05 11:22:17;;;;;;;11.20;7.55;;;4.90;99.90;;;;;;5016035;28;20426;-87
2021/12/05 11:24:47;;;;;;;14.15;7.45;;;5.00;99.90;;;;;;5012949;28;20065;-87
2021/12/05 11:27:24;;;;;;;10.80;7.18;;;5.00;99.90;;;;;;5031591;28;20500;-86
2021/12/05 11:30:15;;;;;;;15.73;7.78;;;5.00;99.90;;;;;;5010136;28;20061;-86
2021/12/05 11:33:01;;;;;;;10.48;7.80;;;5.10;99.90;;;;;;5004531;28;20462;-86
2021/12/05 11:35:55;;;;;;;9.90;7.13;;;5.20;99.90;;;;;;5012581;28;20474;-86
2021/12/05 11:38:31;;;;;;;12.10;8.13;;;5.20;99.90;;;;;;5014590;28;20026;-86
2021/12/05 11:41:10;;;;;;;12.48;8.35;;;5.20;99.90;;;;;;5036401;28;20033;-86
2021/12/05 11:43:39;;;;;;;11.75;7.57;;;5.20;99.90;;;;;;5006378;28;20424;-88
2021/12/05 11:46:12;;;;;;;11.95;8.40;;;5.30;99.90;;;;;;5008783;28;20041;-87
2021/12/05 11:48:45;;;;;;;12.32;8.68;;;5.30;99.90;;;;;;5025676;28;20640;-88
2021/12/05 11:51:33;;;;;;;9.75;7.40;;;5.40;99.90;;;;;;5003427;28;20026;-88
2021/12/05 11:54:10;;;;;;;10.05;7.50;;;5.40;99.90;;;;;;5011165;28;20023;-88
2021/12/05 11:56:59;;;;;;;9.93;8.13;;;5.50;99.90;;;;;;5023379;28;20026;-88
2021/12/05 11:59:45;;;;;;;13.48;9.27;;;5.50;99.90;;;;;;5011834;28;20076;-88
2021/12/05 12:02:15;;;;;;;12.18;8.75;;;5.50;99.90;;;;;;5014080;28;20093;-88
2021/12/05 12:04:54;;;;;;;13.15;7.80;;;5.50;99.90;;;;;;5012036;28;20613;-88
2021/12/05 12:07:38;;;;;;;11.98;8.80;;;5.60;99.90;;;;;;5012053;28;20022;-88
2021/12/05 12:10:25;;;;;;;11.65;7.82;;;5.60;99.90;;;;;;5010691;28;20109;-88
2021/12/05 12:12:57;;;;;;;10.38;7.85;;;5.60;99.90;;;;;;5027112;28;20478;-87
2021/12/05 12:15:26;;;;;;;10.77;7.78;;;5.60;99.90;;;;;;5011313;28;22405;-87
2021/12/05 12:17:57;;;;;;;11.27;8.25;;;5.60;99.90;;;;;;5013949;28;20058;-90
2021/12/05 12:20:25;;;;;;;11.63;7.65;;;5.70;99.90;;;;;;5013182;28;20057;-89
2021/12/05 12:22:55;;;;;;;11.77;6.95;;;5.70;99.90;;;;;;5013066;28;20021;-87
2021/12/05 12:25:25;;;;;;;8.52;6.18;;;5.80;99.90;;;;;;5029458;28;20034;-88
2021/12/05 12:27:51;;;;;;;11.70;7.35;;;5.80;99.90;;;;;;5011168;28;20037;-89
2021/12/05 12:30:25;;;;;;;8.40;6.82;;;5.90;99.90;;;;;;5016447;28;20089;-88
2021/12/05 12:32:55;;;;;;;8.77;7.15;;;5.90;99.90;;;;;;5024483;28;20546;-88
2021/12/05 12:35:25;;;;;;;10.55;7.82;;;5.90;99.90;;;;;;5007885;28;20030;-88
2021/12/05 12:37:57;;;;;;;7.07;5.93;;;5.80;99.90;;;;;;5020354;28;20113;-89
2021/12/05 12:40:45;;;;;;;9.18;6.28;;;5.80;99.90;;;;;;4996808;28;20038;-87
2021/12/05 12:43:32;;;;;;;9.25;6.05;;;5.70;99.90;;;;;;5010837;28;20030;-90
2021/12/05 12:46:13;;;;;;;7.13;5.72;;;5.70;99.90;;;;;;5002869;28;20034;-90
2021/12/05 12:48:38;;;;;;;6.80;5.38;;;5.70;99.90;;;;;;5006789;28;20539;-88
2021/12/05 12:51:04;;;;;;;8.98;6.20;;;5.70;99.90;;;;;;5035858;28;20056;-89
2021/12/05 12:53:38;;;;;;;7.47;5.97;;;5.70;99.90;;;;;;5014581;28;20025;-88
2021/12/05 12:56:19;;;;;;;7.97;6.32;;;5.70;99.90;;;;;;5013123;28;20068;-89
2021/12/05 12:58:49;;;;;;;9.52;6.35;;;5.80;99.90;;;;;;5006259;28;20601;-91
2021/12/05 13:10:09;;;;;;;4.82;4.30;;;5.90;99.90;;;;;;5006606;28;20117;-91
2021/12/05 13:12:49;;;;;;;6.25;4.35;;;5.80;99.90;;;;;;5010823;28;20089;-90
2021/12/05 13:15:30;;;;;;;6.20;4.32;;;5.80;99.90;;;;;;5009960;28;20068;-90
2021/12/05 13:18:16;;;;;;;6.20;3.55;;;5.80;99.90;;;;;;4996718;28;20069;-89
2021/12/05 13:20:41;;;;;;;4.32;3.72;;;5.80;99.90;;;;;;5022591;28;20053;-91
2021/12/05 13:23:09;;;;;;;6.45;4.00;;;5.90;99.90;;;;;;4998115;28;20018;-89
2021/12/05 13:26:14;;;;;;;6.13;4.18;;;5.90;99.90;;;;;;5007784;28;20610;-87
2021/12/05 13:28:44;;;;;;;7.28;4.65;;;5.90;99.90;;;;;;5010932;28;20038;-87
2021/12/05 13:31:28;;;;;;;6.00;5.10;;;5.90;99.90;;;;;;5007927;28;20021;-88
2021/12/05 13:34:16;;;;;;;7.75;5.43;;;6.00;99.90;;;;;;5013422;28;20030;-87
2021/12/05 13:36:45;;;;;;;6.45;4.90;;;6.00;99.90;;;;;;5013218;28;20022;-87
2021/12/05 13:39:49;;;;;;;7.72;5.43;;;6.00;99.90;;;;;;5015577;28;20021;-86
2021/12/05 13:42:41;;;;;;;6.93;5.25;;;6.00;99.90;;;;;;5003951;28;20088;-88
2021/12/05 13:45:13;;;;;;;6.38;4.72;;;6.00;99.90;;;;;;5012717;28;20042;-89
2021/12/05 13:47:40;;;;;;;6.20;5.30;;;6.00;99.90;;;;;;5016483;28;20078;-89
2021/12/05 13:50:18;;;;;;;5.18;3.90;;;5.90;99.90;;;;;;5016892;28;20418;-89
2021/12/05 13:52:50;;;;;;;3.20;2.78;;;5.90;99.90;;;;;;4998971;28;20293;-89
2021/12/05 13:55:36;;;;;;;2.67;2.30;;;5.90;99.90;;;;;;5012129;28;20049;-89
2021/12/05 13:58:26;;;;;;;3.97;1.58;;;5.80;99.90;;;;;;5013219;28;20084;-90
2021/12/05 14:01:07;;;;;;;2.88;2.00;;;5.80;99.90;;;;;;5014570;28;20071;-88
2021/12/05 14:04:04;;;;;;;2.35;1.83;;;5.70;99.90;;;;;;5025505;28;20417;-88
2021/12/05 14:06:54;;;;;;;3.80;2.00;;;5.70;99.90;;;;;;5013733;28;20026;-87
2021/12/05 14:09:29;;;;;;;4.50;3.03;;;5.70;99.90;;;;;;4997353;28;20026;-88
2021/12/05 14:11:58;;;;;;;3.10;2.63;;;5.70;99.90;;;;;;5011354;28;20124;-88
2021/12/05 14:14:35;;;;;;;3.85;3.15;;;5.70;99.90;;;;;;5031700;28;20026;-88
2021/12/05 14:17:05;;;;;;;3.72;2.90;;;5.70;99.90;;;;;;5010978;28;20037;-88
2021/12/05 14:19:33;;;;;;;3.42;2.45;;;5.70;99.90;;;;;;5015195;28;20026;-88
2021/12/05 14:22:02;;;;;;;2.50;1.90;;;5.70;99.90;;;;;;5013220;28;20051;-88
2021/12/05 14:24:32;;;;;;;3.97;2.42;;;5.70;99.90;;;;;;5015951;28;20034;-88
2021/12/05 14:27:02;;;;;;;3.90;2.53;;;5.70;99.90;;;;;;5019207;28;20426;-88
2021/12/05 14:29:31;;;;;;;3.53;2.40;;;5.70;99.90;;;;;;5014754;28;20049;-89
2021/12/05 14:32:04;;;;;;;2.53;1.98;;;5.70;99.90;;;;;;5011796;28;20049;-89
2021/12/05 14:34:30;;;;;;;3.05;2.28;;;5.70;99.90;;;;;;5012883;28;20490;-89
2021/12/05 14:37:11;;;;;;;3.50;2.05;;;5.70;99.90;;;;;;5037725;28;20084;-89
2021/12/05 14:39:39;;;;;;;3.10;2.47;;;5.70;99.90;;;;;;5015703;28;20034;-89
2021/12/05 14:42:08;;;;;;;5.55;2.72;;;5.60;99.90;;;;;;5015781;28;20041;-89
2021/12/05 14:44:35;;;;;;;6.43;2.45;;;5.60;99.90;;;;;;5005259;28;20034;-89
2021/12/05 14:47:05;;;;;;;3.08;2.33;;;5.60;99.90;;;;;;5014614;28;20038;-88
2021/12/05 14:49:36;;;;;;;2.90;2.15;;;5.70;99.90;;;;;;5031282;28;20030;-89
2021/12/05 14:52:05;;;;;;;3.72;2.92;;;5.70;99.90;;;;;;5009355;28;20063;-88
2021/12/05 14:54:37;;;;;;;3.22;2.63;;;5.60;99.90;;;;;;5011996;28;20028;-89
2021/12/05 14:57:24;;;;;;;3.75;2.95;;;5.60;99.90;;;;;;5005853;28;20101;-89
2021/12/05 14:59:52;;;;;;;3.88;2.60;;;5.60;99.90;;;;;;5030026;28;20034;-88
2021/12/05 15:02:19;;;;;;;4.05;2.53;;;5.60;99.90;;;;;;5021877;28;20057;-88
2021/12/05 15:04:51;;;;;;;3.60;2.83;;;5.60;99.90;;;;;;5024836;28;20053;-88
2021/12/05 15:07:24;;;;;;;4.00;2.53;;;5.60;99.90;;;;;;5025390;28;20025;-90
2021/12/05 15:09:53;;;;;;;4.00;2.97;;;5.60;99.90;;;;;;5012923;28;20030;-89
2021/12/05 15:12:28;;;;;;;4.15;2.80;;;5.60;99.90;;;;;;5030753;28;20041;-89
2021/12/05 15:15:00;;;;;;;3.53;2.55;;;5.60;99.90;;;;;;5021495;28;20390;-89
2021/12/05 15:17:31;;;;;;;3.77;2.50;;;5.50;99.90;;;;;;5011812;28;20124;-89
2021/12/05 15:20:03;;;;;;;3.40;2.97;;;5.50;99.90;;;;;;5022149;28;20030;-89
2021/12/05 15:22:28;;;;;;;4.95;3.10;;;5.50;99.90;;;;;;5028889;28;20022;-89
2021/12/05 15:24:58;;;;;;;3.83;2.75;;;5.50;99.90;;;;;;5031717;28;20037;-89
2021/12/05 15:27:26;;;;;;;4.25;3.40;;;5.50;99.90;;;;;;5025279;28;20026;-89
2021/12/05 15:29:56;;;;;;;6.25;3.38;;;5.40;99.90;;;;;;4999501;28;20169;-89
2021/12/05 15:32:26;;;;;;;4.97;3.25;;;5.40;99.90;;;;;;5028032;28;20033;-89
2021/12/05 15:34:54;;;;;;;5.38;3.47;;;5.40;99.90;;;;;;5025909;28;20786;-89
2021/12/05 15:37:21;;;;;;;5.50;3.42;;;5.40;99.90;;;;;;5004392;28;20097;-89
2021/12/05 15:39:50;;;;;;;4.22;3.13;;;5.40;99.90;;;;;;5019457;28;20090;-89
2021/12/05 15:42:18;;;;;;;4.05;3.17;;;5.30;99.90;;;;;;5012159;28;20359;-89
2021/12/05 15:44:44;;;;;;;6.35;3.90;;;5.30;99.90;;;;;;5024019;28;20049;-89
2021/12/05 15:47:20;;;;;;;4.72;3.63;;;5.30;99.90;;;;;;4991883;28;20490;-89
2021/12/05 15:49:54;;;;;;;5.90;3.75;;;5.30;99.90;;;;;;5004688;28;20037;-89
2021/12/05 15:52:24;;;;;;;7.50;3.85;;;5.30;99.90;;;;;;5008982;28;20026;-89
2021/12/05 15:54:51;;;;;;;5.35;4.25;;;5.30;99.90;;;;;;5029984;28;20030;-90
2021/12/05 15:57:27;;;;;;;6.43;4.28;;;5.30;99.90;;;;;;5014231;28;20034;-89
2021/12/05 15:59:54;;;;;;;7.07;4.55;;;5.30;99.90;;;;;;5009929;28;20036;-89
2021/12/05 16:02:20;;;;;;;7.93;4.13;;;5.30;99.90;;;;;;5008765;28;20022;-89
2021/12/05 16:04:47;;;;;;;8.82;5.70;;;5.30;99.90;;;;;;5003967;28;20487;-91
2021/12/05 16:07:15;;;;;;;6.70;4.93;;;5.20;99.90;;;;;;5025450;28;20030;-90
2021/12/05 16:09:42;;;;;;;5.65;4.50;;;5.20;99.90;;;;;;5007902;28;20022;-89
2021/12/05 16:12:14;;;;;;;7.63;5.72;;;5.30;99.90;;;;;;5023602;28;20113;-90
2021/12/05 16:14:43;;;;;;;8.02;6.00;;;5.20;99.90;;;;;;5010453;28;20065;-87
2021/12/05 16:17:17;;;;;;;7.45;5.68;;;5.20;99.90;;;;;;5011017;28;20026;-88
2021/12/05 16:20:17;;;;;;;7.38;5.28;;;5.20;99.90;;;;;;5010690;28;20026;-87
2021/12/05 16:23:13;;;;;;;8.20;5.97;;;5.30;99.90;;;;;;5008981;28;20056;-87
2021/12/05 16:26:02;;;;;;;9.20;5.80;;;5.20;99.90;;;;;;5003905;28;20124;-88
2021/12/05 16:28:41;;;;;;;8.80;5.85;;;5.20;99.90;;;;;;5009393;28;20029;-87
2021/12/05 16:31:15;;;;;;;10.15;6.53;;;5.20;99.90;;;;;;5021703;28;20608;-90
2021/12/05 16:33:45;;;;;;;8.77;6.15;;;5.20;99.90;;;;;;5007772;28;20037;-88
2021/12/05 16:36:11;;;;;;;7.70;5.55;;;5.20;99.90;;;;;;5002755;28;20053;-88
2021/12/05 16:39:03;;;;;;;11.95;6.40;;;5.20;99.90;;;;;;5001872;28;20025;-86
2021/12/05 16:41:30;;;;;;;11.57;5.70;;;5.20;99.90;;;;;;5007025;28;20616;-89
2021/12/05 16:44:11;;;;;;;10.32;6.47;;;5.20;99.90;;;;;;5008432;28;20041;-89
2021/12/05 16:46:45;;;;;;;7.88;5.85;;;5.40;99.90;;;;;;5007425;28;20077;-90
2021/12/05 16:49:14;;;;;;;7.28;5.20;;;5.40;99.90;;;;;;5002616;28;20061;-87
2021/12/05 16:51:51;;;;;;;8.98;6.10;;;5.40;99.90;;;;;;4998377;28;20057;-89
2021/12/05 16:54:18;;;;;;;9.75;7.05;;;5.50;99.90;;;;;;5001742;28;20030;-89
2021/12/05 16:56:48;;;;;;;8.60;6.10;;;5.60;99.90;;;;;;5010620;28;20029;-89
2021/12/05 16:59:25;;;;;;;10.27;6.60;;;5.60;99.90;;;;;;5018200;28;20030;-88
2021/12/05 17:02:22;;;;;;;9.45;7.10;;;5.60;99.90;;;;;;5012138;28;20053;-89
2021/12/05 17:05:06;;;;;;;13.68;7.60;;;5.70;99.90;;;;;;4998674;28;20038;-90
2021/12/05 17:07:40;;;;;;;8.98;6.65;;;5.70;99.90;;;;;;4996351;28;20034;-87
2021/12/05 17:10:11;;;;;;;8.98;7.05;;;5.60;99.90;;;;;;4994581;28;20486;-89
2021/12/05 17:12:37;;;;;;;9.57;7.60;;;5.60;99.90;;;;;;4998588;28;20049;-88
2021/12/05 17:15:15;;;;;;;13.23;8.88;;;5.50;99.90;;;;;;5010054;28;20030;-88
2021/12/05 17:17:45;;;;;;;12.15;8.90;;;5.50;99.90;;;;;;5025690;28;20042;-87
2021/12/05 17:20:19;;;;;;;11.60;7.97;;;5.40;99.90;;;;;;5012570;28;20375;-88
2021/12/05 17:23:02;;;;;;;10.77;7.43;;;5.50;99.90;;;;;;5025871;28;20041;-90
2021/12/05 17:25:33;;;;;;;12.60;8.50;;;5.50;99.90;;;;;;5028812;28;20033;-90
2021/12/05 17:28:00;;;;;;;12.23;8.43;;;5.60;99.90;;;;;;5020980;28;20109;-90
2021/12/05 17:30:29;;;;;;;13.50;7.80;;;5.60;99.90;;;;;;5012339;28;20022;-89
2021/12/05 17:32:56;;;;;;;9.20;6.97;;;5.60;99.90;;;;;;5013806;28;20018;-89
2021/12/05 17:35:28;;;;;;;12.88;8.13;;;5.50;99.90;;;;;;5014519;28;20117;-89
2021/12/05 17:37:54;;;;;;;9.88;7.60;;;5.60;99.90;;;;;;5004182;28;20042;-88
2021/12/05 17:40:20;;;;;;;13.07;9.10;;;5.60;99.90;;;;;;5017873;28;20062;-88
2021/12/05 17:42:45;;;;;;;14.13;8.68;;;5.50;99.90;;;;;;5011403;28;20549;-89
2021/12/05 17:45:13;;;;;;;13.32;8.60;;;5.50;99.90;;;;;;5014500;28;20044;-89
2021/12/05 17:47:39;;;;;;;12.02;8.10;;;5.50;99.90;;;;;;5030577;28;20029;-88
2021/12/05 17:50:09;;;;;;;10.15;6.88;;;5.50;99.90;;;;;;5015076;28;20034;-89
2021/12/05 17:52:35;;;;;;;11.00;7.70;;;5.40;99.90;;;;;;5011358;28;20033;-89
2021/12/05 17:55:14;;;;;;;10.25;7.75;;;5.50;99.90;;;;;;5027934;28;20033;-88
2021/12/05 17:57:44;;;;;;;7.90;6.35;;;5.40;99.90;;;;;;5012233;28;20033;-89
2021/12/05 18:02:58;;;;;;;12.73;8.00;;;5.30;99.90;;;;;;5017916;28;20033;-88
2021/12/05 18:05:27;;;;;;;9.68;7.65;;;5.20;99.90;;;;;;5016936;28;20040;-88
2021/12/05 18:07:56;;;;;;;16.20;8.43;;;5.20;99.90;;;;;;5011982;28;20113;-89
2021/12/05 18:10:27;;;;;;;15.55;8.77;;;5.20;99.90;;;;;;5011085;28;20104;-88
2021/12/05 18:12:59;;;;;;;12.65;8.98;;;5.20;99.90;;;;;;5012031;28;20546;-89
2021/12/05 18:15:29;;;;;;;14.20;9.50;;;5.10;99.90;;;;;;5014596;28;20025;-88
2021/12/05 18:17:57;;;;;;;16.98;10.13;;;5.10;99.90;;;;;;5016782;28;20050;-88